Dickey, North Dakota
Current Conditions -  °F | °C
As of 1:56 PM on Saturday 25 Oct 2014 (Local Time) from KJMS Reporting Station
Overcast Overcast  
Wind Chill: 16°   Ceiling: 9000
Heat Index: 16°   Visibility: 10mi
Dew Point: -1°   Wind: 6mph
Humidity: 32%   Direction: 310°NW
Pressure: 30.1"   Gusts: NA
Location:  46.54°N, 98.47°W
Report Text: KJMS 251856Z AUTO 31005KT 10SM OVC090 16/M01 A3010 RMK AO2 SLP200 T01561011
Loading
Personal Weather Stations






























Interactive Weather Map
Tropical Storm Tracking
New forecast layout! Learn more

10-Day Weather Forecast

Advertisements
Track Severe Weather on mobile